createdAt,value
2023-01-13T00:00:16.125Z,7.47
2023-01-13T00:02:43.215Z,3.88
2023-01-13T00:05:10.706Z,5.70
2023-01-13T00:07:41.214Z,7.25
2023-01-13T00:10:10.336Z,5.07
2023-01-13T00:12:42.357Z,5.18
2023-01-13T00:15:11.198Z,6.63
2023-01-13T00:17:39.023Z,6.72
2023-01-13T00:20:06.928Z,5.85
2023-01-13T00:22:35.355Z,9.57
2023-01-13T00:25:04.565Z,5.13
2023-01-13T00:27:31.809Z,8.65
2023-01-13T00:29:59.010Z,4.07
2023-01-13T00:32:26.419Z,8.75
2023-01-13T00:34:53.704Z,9.18
2023-01-13T00:37:20.657Z,9.10
2023-01-13T00:39:48.029Z,7.03
2023-01-13T00:42:33.815Z,12.43
2023-01-13T00:45:00.822Z,9.00
2023-01-13T00:47:27.806Z,6.82
2023-01-13T00:49:54.787Z,10.00
2023-01-13T00:52:21.789Z,9.55
2023-01-13T00:54:48.894Z,10.77
2023-01-13T00:57:15.984Z,10.93
2023-01-13T00:59:43.100Z,10.43
2023-01-13T01:02:10.151Z,10.13
2023-01-13T01:04:37.189Z,7.28
2023-01-13T01:07:04.109Z,6.78
2023-01-13T01:09:33.556Z,9.98
2023-01-13T01:12:01.460Z,9.50
2023-01-13T01:14:28.564Z,9.30
2023-01-13T01:16:55.537Z,7.65
2023-01-13T01:19:22.430Z,7.15
2023-01-13T01:21:49.368Z,8.35
2023-01-13T01:24:16.738Z,9.38
2023-01-13T01:26:43.892Z,7.60
2023-01-13T01:29:15.165Z,10.18
2023-01-13T01:31:42.853Z,6.32
2023-01-13T01:34:09.791Z,9.20
2023-01-13T01:36:36.754Z,4.50
2023-01-13T01:39:04.258Z,6.00
2023-01-13T01:41:33.819Z,4.25
2023-01-13T01:44:41.892Z,6.53
2023-01-13T01:47:11.789Z,6.38
2023-01-13T01:49:40.266Z,7.70
2023-01-13T01:52:12.573Z,7.10
2023-01-13T01:55:00.386Z,5.72
2023-01-13T01:57:41.816Z,4.90
2023-01-13T02:00:09.634Z,5.40
2023-01-13T02:02:37.247Z,7.82
2023-01-13T02:05:04.285Z,10.77
2023-01-13T02:07:33.126Z,5.28
2023-01-13T02:10:05.745Z,7.82
2023-01-13T02:12:33.176Z,9.43
2023-01-13T02:15:11.283Z,10.30
2023-01-13T02:18:03.019Z,4.65
2023-01-13T02:20:39.141Z,9.35
2023-01-13T02:23:39.636Z,6.43
2023-01-13T02:26:46.062Z,10.60
2023-01-13T02:30:09.203Z,8.20
2023-01-13T02:32:54.697Z,11.68
2023-01-13T02:35:55.015Z,8.45
2023-01-13T02:38:29.472Z,9.40
2023-01-13T02:41:30.577Z,8.15
2023-01-13T02:44:09.330Z,9.05
2023-01-13T02:46:55.223Z,8.77
2023-01-13T02:49:35.401Z,10.15
2023-01-13T02:52:33.695Z,9.43
2023-01-13T02:55:09.833Z,9.35
2023-01-13T02:57:39.753Z,9.75
2023-01-13T03:00:11.309Z,10.60
2023-01-13T03:02:38.798Z,9.15
2023-01-13T03:05:06.746Z,11.18
2023-01-13T03:07:57.706Z,10.73
2023-01-13T03:10:30.468Z,7.43
2023-01-13T03:13:09.690Z,9.07
2023-01-13T03:15:48.454Z,7.97
2023-01-13T03:18:36.517Z,5.35
2023-01-13T03:21:19.438Z,5.95
2023-01-13T03:24:06.826Z,8.23
2023-01-13T03:26:55.285Z,5.93
2023-01-13T03:29:39.114Z,6.18
2023-01-13T03:32:20.294Z,8.73
2023-01-13T03:34:55.233Z,7.10
2023-01-13T03:37:28.568Z,8.70
2023-01-13T03:40:02.246Z,7.05
2023-01-13T03:42:33.472Z,6.97
2023-01-13T03:45:12.621Z,8.35
2023-01-13T03:47:41.768Z,8.52
2023-01-13T03:50:11.825Z,7.90
2023-01-13T03:52:44.770Z,5.13
2023-01-13T03:55:21.017Z,5.68
2023-01-13T03:57:57.360Z,7.32
2023-01-13T04:00:30.054Z,4.80
2023-01-13T04:03:07.159Z,4.25
2023-01-13T04:05:42.145Z,5.10
2023-01-13T04:08:22.004Z,5.70
2023-01-13T04:11:10.028Z,8.60
2023-01-13T04:13:40.267Z,6.82
2023-01-13T04:16:08.929Z,4.45
2023-01-13T04:18:38.895Z,7.22
2023-01-13T04:21:07.718Z,7.57
2023-01-13T04:23:34.958Z,5.70
2023-01-13T04:26:01.860Z,4.63
2023-01-13T04:28:28.883Z,6.35
2023-01-13T04:30:55.945Z,6.45
2023-01-13T04:33:23.179Z,8.00
2023-01-13T04:35:50.225Z,5.60
2023-01-13T04:38:19.004Z,6.03
2023-01-13T04:40:46.307Z,5.57
2023-01-13T04:43:13.538Z,9.10
2023-01-13T04:45:40.953Z,4.55
2023-01-13T04:48:08.047Z,4.05
2023-01-13T04:50:36.034Z,6.13
2023-01-13T04:53:03.207Z,5.10
2023-01-13T04:55:31.784Z,5.82
2023-01-13T04:58:06.473Z,5.57
2023-01-13T05:00:33.803Z,6.25
2023-01-13T05:03:01.067Z,7.18
2023-01-13T05:05:29.638Z,4.50
2023-01-13T05:07:57.584Z,5.47
2023-01-13T05:10:24.847Z,5.45
2023-01-13T05:13:10.571Z,6.07
2023-01-13T05:15:57.881Z,9.30
2023-01-13T05:18:25.531Z,3.58
2023-01-13T05:20:52.509Z,7.43
2023-01-13T05:23:37.657Z,4.18
2023-01-13T05:26:05.445Z,4.53
2023-01-13T05:28:34.017Z,4.72
2023-01-13T05:31:01.362Z,3.90
2023-01-13T05:33:28.371Z,5.72
2023-01-13T05:35:55.309Z,3.30
2023-01-13T05:38:22.325Z,4.72
2023-01-13T05:41:08.168Z,3.30
2023-01-13T05:43:35.281Z,5.90
2023-01-13T05:46:08.077Z,9.80
2023-01-13T05:48:38.482Z,4.50
2023-01-13T05:51:08.183Z,8.60
2023-01-13T05:53:35.650Z,5.85
2023-01-13T05:56:07.175Z,3.42
2023-01-13T05:58:34.294Z,8.50
2023-01-13T06:01:03.750Z,10.55
2023-01-13T06:03:30.886Z,4.63
2023-01-13T06:06:02.309Z,7.28
2023-01-13T06:08:30.150Z,5.82
2023-01-13T06:10:57.525Z,4.63
2023-01-13T06:13:25.458Z,7.25
2023-01-13T06:15:56.763Z,5.47
2023-01-13T06:18:27.127Z,4.43
2023-01-13T06:20:54.342Z,6.20
2023-01-13T06:23:21.329Z,5.55
2023-01-13T06:25:58.855Z,7.28
2023-01-13T06:28:25.845Z,7.28
2023-01-13T06:30:57.806Z,9.35
2023-01-13T06:33:32.104Z,8.70
2023-01-13T06:36:05.037Z,6.70
2023-01-13T06:38:36.096Z,9.77
2023-01-13T06:41:04.942Z,9.55
2023-01-13T06:43:31.856Z,5.45
2023-01-13T06:45:58.818Z,9.05
2023-01-13T06:48:32.899Z,9.07
2023-01-13T06:51:00.171Z,8.65
2023-01-13T06:53:27.228Z,8.55
2023-01-13T06:55:54.095Z,11.20
2023-01-13T06:58:21.059Z,13.65
2023-01-13T07:00:51.640Z,10.82
2023-01-13T07:03:19.668Z,9.40
2023-01-13T07:05:53.308Z,8.27
2023-01-13T07:08:20.732Z,11.77
2023-01-13T07:10:47.657Z,9.48
2023-01-13T07:13:32.938Z,9.52
2023-01-13T07:16:02.931Z,7.38
2023-01-13T07:18:34.794Z,12.73
2023-01-13T07:21:06.688Z,13.05
2023-01-13T07:23:36.470Z,8.63
2023-01-13T07:26:04.157Z,9.18
2023-01-13T07:28:32.083Z,7.03
2023-01-13T07:30:59.381Z,13.82
2023-01-13T07:33:26.722Z,10.05
2023-01-13T07:35:58.949Z,12.57
2023-01-13T07:38:26.682Z,7.88
2023-01-13T07:40:53.673Z,8.57
2023-01-13T07:43:32.416Z,7.30
2023-01-13T07:46:04.923Z,9.60
2023-01-13T07:48:35.303Z,7.95
2023-01-13T07:51:04.524Z,12.50
2023-01-13T07:53:31.766Z,16.08
2023-01-13T07:55:59.959Z,14.02
2023-01-13T07:58:28.042Z,11.25
2023-01-13T08:00:55.823Z,7.15
2023-01-13T08:03:23.401Z,12.18
2023-01-13T08:05:50.485Z,10.98
2023-01-13T08:08:17.543Z,9.50
2023-01-13T08:10:45.085Z,8.15
2023-01-13T08:13:17.697Z,14.00
2023-01-13T08:15:45.583Z,8.23
2023-01-13T08:18:13.634Z,11.18
2023-01-13T08:20:40.785Z,9.60
2023-01-13T08:23:07.896Z,11.93
2023-01-13T08:25:34.937Z,8.55
2023-01-13T08:28:02.165Z,9.52
2023-01-13T08:30:29.426Z,7.60
2023-01-13T08:32:56.485Z,9.75
2023-01-13T08:35:24.155Z,7.65
2023-01-13T08:37:51.400Z,10.30
2023-01-13T08:40:20.813Z,8.50
2023-01-13T08:42:48.842Z,11.02
2023-01-13T08:45:16.263Z,11.98
2023-01-13T08:47:43.201Z,11.10
2023-01-13T08:50:13.417Z,9.18
2023-01-13T08:52:40.854Z,14.25
2023-01-13T08:55:08.327Z,15.18
2023-01-13T08:57:35.634Z,10.80
2023-01-13T09:00:03.852Z,7.93
2023-01-13T09:02:30.887Z,10.30
2023-01-13T09:04:57.886Z,13.35
2023-01-13T09:07:24.813Z,9.63
2023-01-13T09:09:51.858Z,11.77
2023-01-13T09:12:37.068Z,11.23
2023-01-13T09:15:06.241Z,15.57
2023-01-13T09:17:33.368Z,11.43
2023-01-13T09:20:00.459Z,13.68
2023-01-13T09:22:27.498Z,12.50
2023-01-13T09:24:55.338Z,12.70
2023-01-13T09:27:23.652Z,13.07
2023-01-13T09:29:50.671Z,12.07
2023-01-13T09:32:17.619Z,13.00
2023-01-13T09:35:02.567Z,11.90
2023-01-13T09:37:31.789Z,11.77
2023-01-13T09:39:58.718Z,13.43
2023-01-13T09:42:48.175Z,15.85
2023-01-13T09:45:28.230Z,11.00
2023-01-13T09:48:16.116Z,13.10
2023-01-13T09:51:14.504Z,11.82
2023-01-13T09:53:51.030Z,10.32
2023-01-13T09:56:18.055Z,13.30
2023-01-13T09:58:46.828Z,13.05
2023-01-13T10:01:32.489Z,12.35
2023-01-13T10:04:14.231Z,11.48
2023-01-13T10:06:44.210Z,17.98
2023-01-13T10:09:22.534Z,11.13
2023-01-13T10:12:09.393Z,12.82
2023-01-13T10:14:52.019Z,10.43
2023-01-13T10:17:21.563Z,12.70
2023-01-13T10:19:51.578Z,16.75
2023-01-13T10:22:58.593Z,12.38
2023-01-13T10:25:25.430Z,12.15
2023-01-13T10:27:55.600Z,9.40
2023-01-13T10:30:22.657Z,10.45
2023-01-13T10:33:13.932Z,13.63
2023-01-13T10:36:12.616Z,14.15
2023-01-13T10:38:45.091Z,10.60
2023-01-13T10:41:15.019Z,13.93
2023-01-13T10:43:51.333Z,11.15
2023-01-13T10:46:19.705Z,11.13
2023-01-13T10:48:57.317Z,11.00
2023-01-13T10:51:31.270Z,13.48
2023-01-13T10:54:20.270Z,10.90
2023-01-13T10:56:47.210Z,8.18
2023-01-13T10:59:30.144Z,10.55
2023-01-13T11:02:19.800Z,16.58
2023-01-13T11:04:54.283Z,11.43
2023-01-13T11:07:50.495Z,10.40
2023-01-13T11:10:27.657Z,12.27
2023-01-13T11:13:28.749Z,17.55
2023-01-13T11:16:15.571Z,13.00
2023-01-13T11:19:14.236Z,8.93
2023-01-13T11:22:04.462Z,11.95
2023-01-13T11:24:38.178Z,11.60
2023-01-13T11:27:43.187Z,11.13
2023-01-13T11:30:35.707Z,11.27
2023-01-13T11:33:14.893Z,10.80
2023-01-13T11:35:53.472Z,12.40
2023-01-13T11:38:31.023Z,13.65
2023-01-13T11:41:08.812Z,9.63
2023-01-13T11:43:42.761Z,10.73
2023-01-13T11:46:10.529Z,15.52
2023-01-13T11:48:41.815Z,10.82
2023-01-13T11:51:19.272Z,11.68
2023-01-13T11:53:58.540Z,11.75
2023-01-13T11:56:31.635Z,9.85
2023-01-13T11:59:08.567Z,14.73
2023-01-13T12:01:54.288Z,13.05
2023-01-13T12:04:27.800Z,11.90
2023-01-13T12:07:22.901Z,14.50
2023-01-13T12:10:19.155Z,10.15
2023-01-13T12:13:12.717Z,10.73
2023-01-13T12:16:17.276Z,11.18
2023-01-13T12:18:56.064Z,10.15
2023-01-13T12:21:44.071Z,9.88
2023-01-13T12:24:36.367Z,12.00
2023-01-13T12:27:11.941Z,11.30
2023-01-13T12:29:39.864Z,14.77
2023-01-13T12:32:21.210Z,12.63
2023-01-13T12:34:57.559Z,9.57
2023-01-13T12:38:10.808Z,13.25
2023-01-13T12:40:59.387Z,8.27
2023-01-13T12:43:44.804Z,9.75
2023-01-13T12:46:23.681Z,8.23
2023-01-13T12:48:59.582Z,13.68
2023-01-13T12:51:36.622Z,8.65
2023-01-13T12:54:37.785Z,10.68
2023-01-13T12:57:16.859Z,8.25
2023-01-13T12:59:49.099Z,7.57
2023-01-13T13:02:26.076Z,7.45
2023-01-13T13:04:56.511Z,8.57
2023-01-13T13:07:38.817Z,10.15
2023-01-13T13:10:30.362Z,11.02
2023-01-13T13:13:20.372Z,9.77
2023-01-13T13:15:49.677Z,11.52
2023-01-13T13:18:21.865Z,9.65
2023-01-13T13:21:04.887Z,10.18
2023-01-13T13:23:52.787Z,10.30
2023-01-13T13:26:24.696Z,14.02
2023-01-13T13:29:13.810Z,9.07
2023-01-13T13:32:11.063Z,9.40
2023-01-13T13:35:22.901Z,9.25
2023-01-13T13:38:34.639Z,6.50
2023-01-13T13:41:30.479Z,12.05
2023-01-13T13:44:21.536Z,9.57
2023-01-13T13:46:49.228Z,11.13
2023-01-13T13:49:20.209Z,13.68
2023-01-13T13:52:18.111Z,9.35
2023-01-13T13:54:49.287Z,8.40
2023-01-13T13:57:39.859Z,10.20
2023-01-13T14:00:35.626Z,8.23
2023-01-13T14:03:18.405Z,9.60
2023-01-13T14:05:54.853Z,8.50
2023-01-13T14:08:22.507Z,6.55
2023-01-13T14:10:49.579Z,5.93
2023-01-13T14:13:28.097Z,7.95
2023-01-13T14:16:02.129Z,6.93
2023-01-13T14:18:33.458Z,5.65
2023-01-13T14:21:05.017Z,5.43
2023-01-13T14:23:33.577Z,5.47
2023-01-13T14:26:08.717Z,11.15
2023-01-13T14:28:40.564Z,8.30
2023-01-13T14:31:09.557Z,10.68
2023-01-13T14:33:40.044Z,7.68
2023-01-13T14:36:32.871Z,9.00
2023-01-13T14:39:05.882Z,6.50
2023-01-13T14:41:39.130Z,14.30
2023-01-13T14:44:31.015Z,4.40
2023-01-13T14:47:00.828Z,10.02
2023-01-13T14:49:36.001Z,10.35
2023-01-13T14:52:24.025Z,7.72
2023-01-13T14:54:58.191Z,8.95
2023-01-13T14:57:31.890Z,4.00
2023-01-13T15:00:14.013Z,5.07
2023-01-13T15:02:44.680Z,7.22
2023-01-13T15:05:17.465Z,8.75
2023-01-13T15:08:05.405Z,7.47
2023-01-13T15:10:42.180Z,7.50
2023-01-13T15:13:57.804Z,9.10
2023-01-13T15:16:27.025Z,6.50
2023-01-13T15:18:55.276Z,9.60
2023-01-13T15:21:23.221Z,7.18
2023-01-13T15:23:50.324Z,11.98
2023-01-13T15:26:20.223Z,8.25
2023-01-13T15:28:48.138Z,8.23
2023-01-13T15:31:15.443Z,9.00
2023-01-13T15:33:43.425Z,6.47
2023-01-13T15:36:21.707Z,7.28
2023-01-13T15:38:48.844Z,9.15
2023-01-13T15:41:15.995Z,6.25
2023-01-13T15:44:01.793Z,8.30
2023-01-13T15:46:40.932Z,7.55
2023-01-13T15:49:13.728Z,7.75
2023-01-13T15:51:40.703Z,8.73
2023-01-13T15:54:08.653Z,11.65
2023-01-13T15:56:38.101Z,8.60
2023-01-13T15:59:10.715Z,7.00
2023-01-13T16:01:37.644Z,12.23
2023-01-13T16:04:04.814Z,11.85
2023-01-13T16:06:36.291Z,7.35
2023-01-13T16:09:04.325Z,8.57
2023-01-13T16:11:31.631Z,7.20
2023-01-13T16:13:59.127Z,9.32
2023-01-13T16:16:28.178Z,9.73
2023-01-13T16:18:55.769Z,7.95
2023-01-13T16:21:23.336Z,7.32
2023-01-13T16:23:51.595Z,8.80
2023-01-13T16:26:29.970Z,6.35
2023-01-13T16:28:58.242Z,9.43
2023-01-13T16:31:32.205Z,11.02
2023-01-13T16:34:03.788Z,8.25
2023-01-13T16:36:34.633Z,5.88
2023-01-13T16:39:04.660Z,7.53
2023-01-13T16:41:31.642Z,7.25
2023-01-13T16:43:58.549Z,8.70
2023-01-13T16:46:27.728Z,8.95
2023-01-13T16:49:01.910Z,9.88
2023-01-13T16:51:28.974Z,12.50
2023-01-13T16:53:56.015Z,8.73
2023-01-13T16:56:28.882Z,12.40
2023-01-13T16:58:58.758Z,11.90
2023-01-13T17:01:32.122Z,9.05
2023-01-13T17:03:59.796Z,9.70
2023-01-13T17:06:39.581Z,11.55
2023-01-13T17:09:12.441Z,8.98
2023-01-13T17:11:39.814Z,8.02
2023-01-13T17:14:18.231Z,13.43
2023-01-13T17:16:46.977Z,14.63
2023-01-13T17:19:14.204Z,9.73
2023-01-13T17:21:41.231Z,12.43
2023-01-13T17:24:09.688Z,12.65
2023-01-13T17:26:40.116Z,12.70
2023-01-13T17:29:11.511Z,13.10
2023-01-13T17:31:38.828Z,13.10
2023-01-13T17:34:06.195Z,10.85
2023-01-13T17:36:33.713Z,12.00
2023-01-13T17:39:00.704Z,10.95
2023-01-13T17:41:27.830Z,9.90
2023-01-13T17:43:55.027Z,12.45
2023-01-13T17:46:23.214Z,15.82
2023-01-13T17:48:53.831Z,17.00
2023-01-13T17:51:22.753Z,15.77
2023-01-13T17:53:49.911Z,10.27
2023-01-13T17:56:18.811Z,10.50
2023-01-13T17:58:46.834Z,11.77
2023-01-13T18:01:17.234Z,15.07
2023-01-13T18:03:44.827Z,15.25
2023-01-13T18:06:19.143Z,9.88
2023-01-13T18:08:46.774Z,15.20
2023-01-13T18:11:15.467Z,13.93
2023-01-13T18:13:46.248Z,13.25
2023-01-13T18:16:15.979Z,12.88
2023-01-13T18:18:44.744Z,9.80
2023-01-13T18:21:38.765Z,9.05
2023-01-13T18:24:30.381Z,12.55
2023-01-13T18:27:16.384Z,12.70
2023-01-13T18:29:52.805Z,10.73
2023-01-13T18:32:21.230Z,11.30
2023-01-13T18:34:49.071Z,15.95
2023-01-13T18:37:18.327Z,16.20
2023-01-13T18:39:45.366Z,15.65
2023-01-13T18:42:31.241Z,16.00
2023-01-13T18:44:58.498Z,17.15
2023-01-13T18:47:28.716Z,14.77
2023-01-13T18:49:57.043Z,12.43
2023-01-13T18:52:24.953Z,16.27
2023-01-13T18:54:52.532Z,11.50
2023-01-13T18:57:21.421Z,11.07
2023-01-13T18:59:48.556Z,15.00
2023-01-13T19:02:18.545Z,14.93
2023-01-13T19:04:45.638Z,17.83
2023-01-13T19:07:16.800Z,18.88
2023-01-13T19:09:44.237Z,13.77
2023-01-13T19:12:13.038Z,12.68
2023-01-13T19:14:42.346Z,14.50
2023-01-13T19:17:15.073Z,20.42
2023-01-13T19:19:44.115Z,22.52
2023-01-13T19:22:13.089Z,11.77
2023-01-13T19:24:42.758Z,17.58
2023-01-13T19:27:14.635Z,15.98
2023-01-13T19:29:50.165Z,15.27
2023-01-13T19:32:23.163Z,14.30
2023-01-13T19:34:51.243Z,16.38
2023-01-13T19:37:19.590Z,12.98
2023-01-13T19:39:46.743Z,10.98
2023-01-13T19:42:32.777Z,15.82
2023-01-13T19:45:18.347Z,15.60
2023-01-13T19:47:46.079Z,18.17
2023-01-13T19:50:14.861Z,18.88
2023-01-13T19:52:45.327Z,16.58
2023-01-13T19:55:12.820Z,20.38
2023-01-13T19:57:41.060Z,18.90
2023-01-13T20:00:13.689Z,22.55
2023-01-13T20:02:49.269Z,15.77
2023-01-13T20:05:21.527Z,20.98
2023-01-13T20:07:50.304Z,17.42
2023-01-13T20:10:20.012Z,20.13
2023-01-13T20:12:46.916Z,16.88
2023-01-13T20:15:14.021Z,20.05
2023-01-13T20:17:41.684Z,16.17
2023-01-13T20:20:09.978Z,17.08
2023-01-13T20:22:38.529Z,19.90
2023-01-13T20:25:06.266Z,19.65
2023-01-13T20:27:33.467Z,12.80
2023-01-13T20:30:00.406Z,18.40
2023-01-13T20:32:27.641Z,12.80
2023-01-13T20:34:54.859Z,16.73
2023-01-13T20:37:24.401Z,15.98
2023-01-13T20:39:51.769Z,17.88
2023-01-13T20:42:39.013Z,15.43
2023-01-13T20:45:06.488Z,16.38
2023-01-13T20:47:33.512Z,16.88
2023-01-13T20:50:00.549Z,13.93
2023-01-13T20:52:28.617Z,18.65
2023-01-13T20:54:55.764Z,15.00
2023-01-13T20:57:22.785Z,17.73
2023-01-13T20:59:49.715Z,18.05
2023-01-13T21:02:17.805Z,15.35
2023-01-13T21:04:44.823Z,13.57
2023-01-13T21:07:12.325Z,18.10
2023-01-13T21:09:39.272Z,16.10
2023-01-13T21:12:33.803Z,18.73
2023-01-13T21:15:20.132Z,9.75
2023-01-13T21:18:07.447Z,17.33
2023-01-13T21:20:36.448Z,19.02
2023-01-13T21:23:04.533Z,17.70
2023-01-13T21:25:33.965Z,13.77
2023-01-13T21:28:10.977Z,17.40
2023-01-13T21:30:38.949Z,12.40
2023-01-13T21:33:06.440Z,15.63
2023-01-13T21:35:37.127Z,14.55
2023-01-13T21:38:04.010Z,16.02
2023-01-13T21:40:30.964Z,18.27
2023-01-13T21:43:16.140Z,14.43
2023-01-13T21:46:01.678Z,17.80
2023-01-13T21:48:29.667Z,19.00
2023-01-13T21:51:01.333Z,12.90
2023-01-13T21:53:28.369Z,16.98
2023-01-13T21:55:55.371Z,13.82
2023-01-13T21:58:22.359Z,13.80
2023-01-13T22:00:49.845Z,21.08
2023-01-13T22:03:18.718Z,13.48
2023-01-13T22:05:46.527Z,19.33
2023-01-13T22:08:13.972Z,19.05
2023-01-13T22:10:57.732Z,15.73
2023-01-13T22:13:43.949Z,21.02
2023-01-13T22:16:11.241Z,14.55
2023-01-13T22:18:38.486Z,19.55
2023-01-13T22:21:05.806Z,17.52
2023-01-13T22:23:33.059Z,17.65
2023-01-13T22:26:04.363Z,16.48
2023-01-13T22:28:40.295Z,25.75
2023-01-13T22:31:15.223Z,16.10
2023-01-13T22:33:43.184Z,13.15
2023-01-13T22:36:10.742Z,21.77
2023-01-13T22:38:37.702Z,18.95
2023-01-13T22:41:07.145Z,15.27
2023-01-13T22:43:35.211Z,15.88
2023-01-13T22:46:11.313Z,16.77
2023-01-13T22:48:39.527Z,15.20
2023-01-13T22:51:08.889Z,15.85
2023-01-13T22:53:37.171Z,14.85
2023-01-13T22:56:04.725Z,19.15
2023-01-13T22:58:31.900Z,18.63
2023-01-13T23:01:10.250Z,17.73
2023-01-13T23:03:37.288Z,17.48
2023-01-13T23:06:05.231Z,20.30
2023-01-13T23:08:33.778Z,17.88
2023-01-13T23:11:02.883Z,16.92
2023-01-13T23:13:30.428Z,18.38
2023-01-13T23:16:05.789Z,18.35
2023-01-13T23:18:32.764Z,18.67
2023-01-13T23:21:10.001Z,18.70
2023-01-13T23:23:37.789Z,18.80
2023-01-13T23:26:07.805Z,17.92
2023-01-13T23:28:35.779Z,16.63
2023-01-13T23:31:07.790Z,19.77
2023-01-13T23:33:35.924Z,16.17
2023-01-13T23:36:05.899Z,15.32
2023-01-13T23:38:32.920Z,13.77
2023-01-13T23:41:00.131Z,19.98
2023-01-13T23:43:27.263Z,15.45
2023-01-13T23:46:05.163Z,18.98
2023-01-13T23:48:33.228Z,12.02
2023-01-13T23:51:02.845Z,15.43
2023-01-13T23:53:39.119Z,19.15
2023-01-13T23:56:10.985Z,10.18
2023-01-13T23:58:37.960Z,19.38
